createdAt,value
2018-10-21T00:02:24.034Z,14.90
2018-10-21T00:04:51.903Z,15.97
2018-10-21T00:07:19.852Z,16.37
2018-10-21T00:09:47.760Z,16.43
2018-10-21T00:12:15.751Z,14.67
2018-10-21T00:14:43.733Z,15.07
2018-10-21T00:17:11.676Z,16.10
2018-10-21T00:19:39.631Z,15.23
2018-10-21T00:22:07.631Z,14.80
2018-10-21T00:24:35.540Z,15.07
2018-10-21T00:27:03.488Z,15.53
2018-10-21T00:29:31.370Z,15.10
2018-10-21T00:31:59.287Z,16.17
2018-10-21T00:34:27.183Z,15.67
2018-10-21T00:36:55.104Z,15.13
2018-10-21T00:39:23.019Z,15.97
2018-10-21T00:41:50.931Z,15.50
2018-10-21T00:44:18.943Z,14.87
2018-10-21T00:46:46.868Z,16.00
2018-10-21T00:49:14.795Z,15.77
2018-10-21T00:51:42.939Z,16.07
2018-10-21T00:54:13.760Z,16.00
2018-10-21T00:56:41.923Z,14.77
2018-10-21T00:59:10.531Z,16.33
2018-10-21T01:01:38.461Z,15.37
2018-10-21T01:04:06.695Z,16.53
2018-10-21T01:06:34.571Z,15.63
2018-10-21T01:09:02.905Z,14.67
2018-10-21T01:11:30.841Z,15.13
2018-10-21T01:13:58.776Z,16.00
2018-10-21T01:16:26.683Z,15.00
2018-10-21T01:18:54.618Z,15.27
2018-10-21T01:21:22.671Z,15.43
2018-10-21T01:23:50.924Z,15.13
2018-10-21T01:26:18.851Z,16.60
2018-10-21T01:28:46.775Z,15.80
2018-10-21T01:31:14.840Z,16.07
2018-10-21T01:33:42.813Z,15.83
2018-10-21T01:36:10.848Z,16.00
2018-10-21T01:38:38.879Z,15.63
2018-10-21T01:41:06.791Z,15.40
2018-10-21T01:43:34.708Z,16.30
2018-10-21T01:46:03.366Z,15.33
2018-10-21T01:48:32.131Z,15.07
2018-10-21T01:51:00.127Z,15.33
2018-10-21T01:53:28.015Z,16.10
2018-10-21T01:55:55.927Z,16.17
2018-10-21T01:58:23.847Z,16.43
2018-10-21T02:00:51.775Z,15.67
2018-10-21T02:03:19.787Z,15.27
2018-10-21T02:05:48.027Z,14.33
2018-10-21T02:08:15.945Z,17.63
2018-10-21T02:10:43.843Z,15.73
2018-10-21T02:13:11.775Z,15.40
2018-10-21T02:15:39.667Z,17.27
2018-10-21T02:18:07.606Z,17.20
2018-10-21T02:20:35.527Z,15.37
2018-10-21T02:23:03.456Z,16.80
2018-10-21T02:25:31.358Z,16.10
2018-10-21T02:27:59.284Z,15.30
2018-10-21T02:30:28.312Z,16.67
2018-10-21T02:32:56.728Z,16.13
2018-10-21T02:35:24.748Z,16.50
2018-10-21T02:37:53.355Z,15.43
2018-10-21T02:41:44.451Z,16.43
2018-10-21T02:44:16.624Z,15.67
2018-10-21T02:46:45.227Z,15.77
2018-10-21T02:49:13.907Z,15.87
2018-10-21T02:51:41.820Z,15.20
2018-10-21T02:54:10.150Z,16.10
2018-10-21T02:56:38.081Z,15.30
2018-10-21T02:59:06.355Z,15.50
2018-10-21T03:01:34.301Z,16.27
2018-10-21T03:04:02.211Z,15.13
2018-10-21T03:06:30.137Z,15.57
2018-10-21T03:08:58.090Z,14.63
2018-10-21T03:11:25.968Z,15.73
2018-10-21T03:13:53.901Z,16.13
2018-10-21T03:16:21.819Z,15.20
2018-10-21T03:18:49.805Z,14.70
2018-10-21T03:21:17.766Z,15.00
2018-10-21T03:23:45.623Z,15.07
2018-10-21T03:26:13.543Z,14.93
2018-10-21T03:28:41.479Z,13.87
2018-10-21T03:31:09.415Z,14.83
2018-10-21T03:33:37.409Z,15.20
2018-10-21T03:36:05.627Z,14.50
2018-10-21T03:38:33.612Z,15.17
2018-10-21T03:41:01.532Z,15.17
2018-10-21T03:43:29.556Z,15.47
2018-10-21T03:45:57.498Z,15.53
2018-10-21T03:48:25.402Z,15.67
2018-10-21T03:50:53.322Z,15.63
2018-10-21T03:53:21.253Z,15.60
2018-10-21T03:55:49.147Z,15.50
2018-10-21T03:58:17.093Z,15.17
2018-10-21T04:00:45.014Z,15.67
2018-10-21T04:03:12.920Z,16.13
2018-10-21T04:05:40.856Z,14.53
2018-10-21T04:08:08.763Z,14.83
2018-10-21T04:10:36.672Z,14.53
2018-10-21T04:13:04.768Z,14.60
2018-10-21T04:15:32.711Z,14.97
2018-10-21T04:18:00.664Z,13.83
2018-10-21T04:20:28.559Z,14.70
2018-10-21T04:22:57.507Z,14.37
2018-10-21T04:25:26.427Z,15.73
2018-10-21T04:27:55.325Z,13.63
2018-10-21T04:30:24.399Z,14.73
2018-10-21T04:33:00.498Z,14.60
2018-10-21T04:35:29.395Z,14.10
2018-10-21T04:38:20.952Z,14.50
2018-10-21T04:40:48.886Z,15.30
2018-10-21T04:43:16.798Z,15.23
2018-10-21T04:45:44.714Z,15.40
2018-10-21T04:48:12.669Z,19.50
2018-10-21T04:50:40.568Z,19.30
2018-10-21T04:53:08.464Z,21.50
2018-10-21T04:55:36.395Z,23.73
2018-10-21T04:58:04.433Z,24.43
2018-10-21T05:00:32.320Z,28.53
2018-10-21T05:03:00.224Z,26.93
2018-10-21T05:05:28.172Z,23.33
2018-10-21T05:07:56.067Z,23.10
2018-10-21T05:10:35.775Z,23.50
2018-10-21T05:13:04.328Z,24.03
2018-10-21T05:15:33.541Z,27.13
2018-10-21T05:18:01.405Z,25.93
2018-10-21T05:20:29.315Z,25.37
2018-10-21T05:22:57.321Z,24.43
2018-10-21T05:25:25.317Z,22.63
2018-10-21T05:27:53.327Z,20.77
2018-10-21T05:30:21.215Z,19.53
2018-10-21T05:32:49.144Z,18.37
2018-10-21T05:35:17.935Z,19.37
2018-10-21T05:37:45.859Z,18.53
2018-10-21T05:40:16.634Z,17.43
2018-10-21T05:42:44.924Z,17.40
2018-10-21T05:45:13.100Z,17.17
2018-10-21T05:47:41.375Z,17.23
2018-10-21T05:50:10.567Z,17.27
2018-10-21T05:52:38.739Z,16.57
2018-10-21T05:55:06.992Z,16.43
2018-10-21T05:57:36.129Z,16.17
2018-10-21T06:00:05.060Z,16.53
2018-10-21T06:02:32.984Z,16.20
2018-10-21T06:05:01.009Z,16.20
2018-10-21T06:07:29.008Z,15.60
2018-10-21T06:09:56.942Z,14.53
2018-10-21T06:12:24.835Z,16.07
2018-10-21T06:14:52.767Z,15.80
2018-10-21T06:17:30.382Z,14.57
2018-10-21T06:20:04.255Z,14.73
2018-10-21T06:22:37.474Z,14.37
2018-10-21T06:25:05.454Z,14.47
2018-10-21T06:27:33.400Z,14.63
2018-10-21T06:30:01.296Z,14.13
2018-10-21T06:32:29.209Z,14.17
2018-10-21T06:34:57.171Z,14.23
2018-10-21T06:37:25.139Z,14.47
2018-10-21T06:39:53.059Z,12.83
2018-10-21T06:42:20.964Z,13.97
2018-10-21T06:44:48.943Z,14.00
2018-10-21T06:47:16.855Z,13.03
2018-10-21T06:49:44.785Z,13.47
2018-10-21T06:52:13.081Z,14.10
2018-10-21T06:54:40.991Z,12.73
2018-10-21T06:57:09.025Z,12.50
2018-10-21T06:59:36.851Z,11.40
2018-10-21T07:02:05.208Z,12.33
2018-10-21T07:04:33.227Z,11.93
2018-10-21T07:07:01.075Z,12.03
2018-10-21T07:09:29.017Z,11.80
2018-10-21T07:11:56.931Z,11.43
2018-10-21T07:14:24.856Z,12.07
2018-10-21T07:16:52.791Z,11.57
2018-10-21T07:19:20.697Z,12.03
2018-10-21T07:21:48.634Z,11.80
2018-10-21T07:24:16.576Z,10.10
2018-10-21T07:26:44.495Z,10.43
2018-10-21T07:29:12.436Z,9.63
2018-10-21T07:31:40.339Z,9.73
2018-10-21T07:34:08.384Z,8.40
2018-10-21T07:36:36.287Z,8.50
2018-10-21T07:39:05.604Z,8.67
2018-10-21T07:41:33.547Z,8.53
2018-10-21T07:44:01.484Z,8.80
2018-10-21T07:46:29.475Z,8.33
2018-10-21T07:48:57.391Z,8.57
2018-10-21T07:51:25.301Z,8.33
2018-10-21T07:53:53.229Z,8.37
2018-10-21T07:56:21.129Z,8.47
2018-10-21T07:58:49.061Z,7.47
2018-10-21T08:01:17.040Z,8.37
2018-10-21T08:03:44.966Z,7.80
2018-10-21T08:06:22.651Z,7.73
2018-10-21T08:08:50.640Z,7.90
2018-10-21T08:11:18.601Z,8.13
2018-10-21T08:13:46.559Z,7.90
2018-10-21T08:16:14.548Z,7.90
2018-10-21T08:18:42.420Z,8.37
2018-10-21T08:21:10.389Z,8.07
2018-10-21T08:23:38.268Z,8.53
2018-10-21T08:26:06.225Z,8.20
2018-10-21T08:28:34.131Z,8.60
2018-10-21T08:31:02.047Z,7.70
2018-10-21T08:33:29.958Z,8.33
2018-10-21T08:35:57.886Z,8.70
2018-10-21T08:38:25.770Z,8.70
2018-10-21T08:40:53.684Z,8.43
2018-10-21T08:43:21.604Z,8.33
2018-10-21T08:45:49.499Z,8.60
2018-10-21T08:48:17.424Z,8.77
2018-10-21T08:50:45.331Z,8.37
2018-10-21T08:53:13.249Z,9.10
2018-10-21T08:55:41.211Z,9.60
2018-10-21T08:58:09.142Z,9.10
2018-10-21T09:00:36.971Z,9.37
2018-10-21T09:03:05.209Z,8.90
2018-10-21T09:05:33.115Z,8.33
2018-10-21T09:08:01.041Z,8.37
2018-10-21T09:10:29.070Z,8.20
2018-10-21T09:12:56.958Z,8.90
2018-10-21T09:15:24.905Z,8.33
2018-10-21T09:17:52.750Z,8.27
2018-10-21T09:20:20.671Z,8.23
2018-10-21T09:22:48.583Z,9.10
2018-10-21T09:25:16.594Z,9.20
2018-10-21T09:27:44.922Z,8.57
2018-10-21T09:30:14.523Z,8.77
2018-10-21T09:32:42.445Z,9.10
2018-10-21T09:35:13.671Z,9.03
2018-10-21T09:37:42.131Z,8.77
2018-10-21T09:40:11.944Z,9.23
2018-10-21T09:42:39.844Z,9.50
2018-10-21T09:45:09.178Z,9.53
2018-10-21T09:47:37.083Z,9.17
2018-10-21T09:50:05.427Z,8.73
2018-10-21T09:52:33.253Z,9.10
2018-10-21T09:55:01.224Z,9.20
2018-10-21T09:57:29.092Z,8.83
2018-10-21T09:59:57.359Z,9.13
2018-10-21T10:02:30.629Z,9.23
2018-10-21T10:04:58.538Z,9.33
2018-10-21T10:07:26.543Z,9.07
2018-10-21T10:09:54.529Z,8.70
2018-10-21T10:12:22.395Z,8.80
2018-10-21T10:14:50.266Z,9.83
2018-10-21T10:17:18.182Z,8.80
2018-10-21T10:19:46.067Z,9.17
2018-10-21T10:22:14.082Z,9.37
2018-10-21T10:24:41.909Z,9.03
2018-10-21T10:27:09.826Z,8.90
2018-10-21T10:29:37.723Z,8.20
2018-10-21T10:32:05.643Z,8.50
2018-10-21T10:34:33.556Z,7.53
2018-10-21T10:37:01.495Z,8.63
2018-10-21T10:39:29.396Z,9.03
2018-10-21T10:41:57.350Z,8.63
2018-10-21T10:44:25.171Z,9.17
2018-10-21T10:46:53.088Z,8.63
2018-10-21T10:49:20.993Z,8.50
2018-10-21T10:51:48.883Z,7.53
2018-10-21T10:54:16.804Z,8.67
2018-10-21T10:56:44.747Z,8.47
2018-10-21T10:59:12.765Z,8.77
2018-10-21T11:01:40.640Z,8.63
2018-10-21T11:04:08.625Z,9.30
2018-10-21T11:06:36.532Z,9.30
2018-10-21T11:09:07.338Z,8.87
2018-10-21T11:11:35.268Z,9.37
2018-10-21T11:14:03.295Z,9.67
2018-10-21T11:16:31.214Z,9.10
2018-10-21T11:18:59.236Z,8.90
2018-10-21T11:21:27.108Z,8.87
2018-10-21T11:23:55.024Z,9.67
2018-10-21T11:26:22.998Z,9.03
2018-10-21T11:28:51.063Z,8.50
2018-10-21T11:31:18.998Z,8.97
2018-10-21T11:33:46.929Z,8.53
2018-10-21T11:36:14.931Z,8.87
2018-10-21T11:38:42.951Z,8.63
2018-10-21T11:41:10.891Z,8.63
2018-10-21T11:43:38.871Z,8.47
2018-10-21T11:46:06.927Z,8.47
2018-10-21T11:48:34.770Z,8.17
2018-10-21T11:51:02.752Z,8.00
2018-10-21T11:53:30.690Z,7.90
2018-10-21T11:55:58.651Z,7.93
2018-10-21T11:58:26.736Z,8.10
2018-10-21T12:00:54.769Z,8.60
2018-10-21T12:03:22.696Z,7.80
2018-10-21T12:05:51.579Z,7.73
2018-10-21T12:08:19.519Z,7.17
2018-10-21T12:10:47.447Z,6.83
2018-10-21T12:13:15.569Z,6.97
2018-10-21T12:15:43.556Z,6.77
2018-10-21T12:18:11.499Z,7.23
2018-10-21T12:20:39.674Z,6.40
2018-10-21T12:23:07.695Z,6.70
2018-10-21T12:25:35.629Z,6.87
2018-10-21T12:28:03.519Z,6.53
2018-10-21T12:30:31.404Z,6.37
2018-10-21T12:32:59.303Z,6.00
2018-10-21T12:35:27.235Z,6.40
2018-10-21T12:37:55.363Z,6.20
2018-10-21T12:40:23.271Z,6.10
2018-10-21T12:42:51.196Z,5.03
2018-10-21T12:45:19.115Z,5.27
2018-10-21T12:47:47.036Z,5.33
2018-10-21T12:50:14.939Z,5.17
2018-10-21T12:52:42.839Z,5.00
2018-10-21T12:55:10.840Z,4.63
2018-10-21T12:57:38.683Z,4.33
2018-10-21T13:00:07.643Z,4.40
2018-10-21T13:02:35.812Z,4.30
2018-10-21T13:05:03.732Z,4.37
2018-10-21T13:07:31.652Z,4.30
2018-10-21T13:09:59.599Z,3.90
2018-10-21T13:12:27.459Z,3.83
2018-10-21T13:14:55.363Z,4.13
2018-10-21T13:17:23.283Z,3.80
2018-10-21T13:19:51.294Z,3.63
2018-10-21T13:22:19.289Z,4.83
2018-10-21T13:24:47.200Z,4.00
2018-10-21T13:27:15.344Z,3.43
2018-10-21T13:29:43.255Z,3.30
2018-10-21T13:32:11.158Z,3.33
2018-10-21T13:34:39.098Z,3.60
2018-10-21T13:37:07.058Z,3.33
2018-10-21T13:39:34.892Z,3.07
2018-10-21T13:42:02.783Z,2.73
2018-10-21T13:44:30.704Z,3.00
2018-10-21T13:46:58.599Z,2.77
2018-10-21T13:49:26.512Z,3.20
2018-10-21T13:51:54.469Z,3.03
2018-10-21T13:54:22.303Z,3.00
2018-10-21T13:56:50.207Z,2.73
2018-10-21T13:59:18.194Z,3.00
2018-10-21T14:01:46.042Z,2.40
2018-10-21T14:04:14.048Z,2.70
2018-10-21T14:06:41.945Z,2.63
2018-10-21T14:09:11.627Z,2.10
2018-10-21T14:11:39.775Z,2.27
2018-10-21T14:14:08.611Z,1.93
2018-10-21T14:16:36.653Z,2.17
2018-10-21T14:19:04.646Z,1.90
2018-10-21T14:21:32.551Z,2.10
2018-10-21T14:24:00.846Z,2.27
2018-10-21T14:26:28.696Z,1.80
2018-10-21T14:28:56.668Z,2.00
2018-10-21T14:31:24.967Z,2.10
2018-10-21T14:33:53.058Z,2.40
2018-10-21T14:36:21.133Z,2.40
2018-10-21T14:38:49.071Z,2.37
2018-10-21T14:41:17.174Z,2.17
2018-10-21T14:43:45.251Z,2.27
2018-10-21T14:46:13.190Z,2.07
2018-10-21T14:48:41.098Z,2.33
2018-10-21T14:51:09.053Z,2.00
2018-10-21T14:53:36.924Z,1.90
2018-10-21T14:56:05.278Z,1.90
2018-10-21T14:58:33.117Z,2.00
2018-10-21T15:01:01.031Z,2.07
2018-10-21T15:03:29.028Z,1.70
2018-10-21T15:05:56.906Z,2.17
2018-10-21T15:08:24.795Z,2.07
2018-10-21T15:10:52.695Z,3.30
2018-10-21T15:13:20.614Z,2.00
2018-10-21T15:15:48.651Z,2.43
2018-10-21T15:18:16.706Z,2.77
2018-10-21T15:20:44.513Z,2.73
2018-10-21T15:23:12.472Z,1.77
2018-10-21T15:25:40.324Z,2.30
2018-10-21T15:28:08.298Z,2.60
2018-10-21T15:30:36.143Z,2.50
2018-10-21T15:33:04.048Z,2.47
2018-10-21T15:35:32.027Z,2.27
2018-10-21T15:37:59.984Z,1.90
2018-10-21T15:40:27.852Z,2.10
2018-10-21T15:42:55.796Z,2.00
2018-10-21T15:45:23.741Z,2.77
2018-10-21T15:47:51.690Z,1.80
2018-10-21T15:50:19.715Z,2.43
2018-10-21T15:52:47.518Z,2.00
2018-10-21T15:55:15.407Z,2.20
2018-10-21T15:57:43.327Z,2.10
2018-10-21T16:00:12.259Z,2.17
2018-10-21T16:02:40.220Z,2.30
2018-10-21T16:05:08.708Z,2.17
2018-10-21T16:07:36.659Z,1.83
2018-10-21T16:10:04.749Z,2.10
2018-10-21T16:12:32.579Z,1.83
2018-10-21T16:15:00.506Z,2.00
2018-10-21T16:17:28.408Z,2.00
2018-10-21T16:19:56.347Z,1.90
2018-10-21T16:22:24.539Z,2.17
2018-10-21T16:24:52.451Z,2.07
2018-10-21T16:27:20.377Z,1.83
2018-10-21T16:29:48.540Z,2.07
2018-10-21T16:32:16.580Z,2.00
2018-10-21T16:34:44.471Z,1.90
2018-10-21T16:37:12.447Z,2.10
2018-10-21T16:39:40.320Z,2.23
2018-10-21T16:42:08.235Z,2.53
2018-10-21T16:44:36.154Z,2.13
2018-10-21T16:47:04.063Z,2.20
2018-10-21T16:49:31.971Z,2.30
2018-10-21T16:51:59.897Z,2.40
2018-10-21T16:54:27.850Z,2.50
2018-10-21T16:56:55.765Z,2.10
2018-10-21T16:59:23.795Z,2.57
2018-10-21T17:01:51.611Z,2.40
2018-10-21T17:04:19.523Z,2.50
2018-10-21T17:06:47.610Z,2.40
2018-10-21T17:09:15.579Z,2.43
2018-10-21T17:11:43.844Z,2.47
2018-10-21T17:14:11.784Z,2.63
2018-10-21T17:16:40.004Z,2.63
2018-10-21T17:19:08.117Z,2.57
2018-10-21T17:21:35.978Z,2.90
2018-10-21T17:24:03.918Z,4.03
2018-10-21T17:26:31.835Z,4.23
2018-10-21T17:28:59.764Z,4.27
2018-10-21T17:31:27.687Z,4.10
2018-10-21T17:33:55.590Z,3.80
2018-10-21T17:36:23.508Z,4.17
2018-10-21T17:38:51.418Z,3.80
2018-10-21T17:41:19.800Z,4.03
2018-10-21T17:43:47.699Z,4.73
2018-10-21T17:46:15.826Z,4.27
2018-10-21T17:48:43.680Z,4.53
2018-10-21T17:51:11.623Z,5.63
2018-10-21T17:53:39.567Z,6.03
2018-10-21T17:56:07.535Z,6.50
2018-10-21T17:58:35.538Z,7.07
2018-10-21T18:01:03.519Z,8.03
2018-10-21T18:03:31.405Z,8.43
2018-10-21T18:05:59.344Z,10.43
2018-10-21T18:08:27.275Z,9.63
2018-10-21T18:10:55.244Z,9.33
2018-10-21T18:13:23.216Z,8.03
2018-10-21T18:15:51.127Z,8.87
2018-10-21T18:18:19.088Z,9.30
2018-10-21T18:20:46.995Z,7.67
2018-10-21T18:23:15.123Z,7.43
2018-10-21T18:25:43.041Z,6.77
2018-10-21T18:28:11.259Z,5.90
2018-10-21T18:30:39.149Z,5.70
2018-10-21T18:33:07.066Z,5.43
2018-10-21T18:35:35.016Z,5.40
2018-10-21T18:38:02.923Z,4.97
2018-10-21T18:40:30.952Z,5.43
2018-10-21T18:42:58.854Z,5.27
2018-10-21T18:45:26.752Z,5.10
2018-10-21T18:47:54.628Z,5.07
2018-10-21T18:50:22.532Z,4.73
2018-10-21T18:52:50.517Z,5.00
2018-10-21T18:55:18.509Z,5.70
2018-10-21T18:57:46.420Z,7.17
2018-10-21T19:00:16.619Z,7.77
2018-10-21T19:02:44.523Z,6.13
2018-10-21T19:05:13.172Z,6.30
2018-10-21T19:07:41.128Z,5.67
2018-10-21T19:10:11.285Z,5.80
2018-10-21T19:12:39.215Z,5.30
2018-10-21T19:15:08.387Z,5.77
2018-10-21T19:17:36.336Z,5.37
2018-10-21T19:20:04.304Z,5.63
2018-10-21T19:22:32.286Z,5.37
2018-10-21T19:25:00.883Z,5.60
2018-10-21T19:27:28.742Z,6.00
2018-10-21T19:29:56.643Z,5.50
2018-10-21T19:32:24.575Z,6.07
2018-10-21T19:34:52.483Z,5.93
2018-10-21T19:37:20.635Z,5.20
2018-10-21T19:39:48.533Z,5.40
2018-10-21T19:42:16.448Z,5.27
2018-10-21T19:44:44.368Z,6.33
2018-10-21T19:47:12.313Z,6.43
2018-10-21T19:49:40.255Z,6.77
2018-10-21T19:52:08.233Z,6.47
2018-10-21T19:54:36.068Z,6.10
2018-10-21T19:57:04.149Z,6.27
2018-10-21T19:59:32.071Z,5.47
2018-10-21T20:02:00.013Z,5.70
2018-10-21T20:04:27.924Z,5.93
2018-10-21T20:06:55.951Z,5.43
2018-10-21T20:09:23.876Z,5.87
2018-10-21T20:11:51.855Z,6.37
2018-10-21T20:14:19.756Z,5.80
2018-10-21T20:16:47.683Z,6.13
2018-10-21T20:19:15.645Z,6.40
2018-10-21T20:21:43.507Z,6.17
2018-10-21T20:24:11.391Z,6.60
2018-10-21T20:26:39.276Z,5.83
2018-10-21T20:29:07.308Z,6.33
2018-10-21T20:31:35.219Z,6.77
2018-10-21T20:34:03.226Z,6.13
2018-10-21T20:36:31.254Z,5.17
2018-10-21T20:38:59.091Z,5.33
2018-10-21T20:41:27.107Z,4.97
2018-10-21T20:43:55.015Z,5.47
2018-10-21T20:46:22.923Z,5.57
2018-10-21T20:48:50.835Z,5.27
2018-10-21T20:51:18.780Z,5.33
2018-10-21T20:53:46.664Z,5.57
2018-10-21T20:56:14.575Z,6.10
2018-10-21T20:58:42.504Z,5.63
2018-10-21T21:01:10.399Z,5.77
2018-10-21T21:03:38.292Z,5.90
2018-10-21T21:06:06.273Z,5.63
2018-10-21T21:08:34.119Z,6.03
2018-10-21T21:11:02.011Z,6.53
2018-10-21T21:13:29.929Z,6.60
2018-10-21T21:15:57.888Z,5.80
2018-10-21T21:18:25.744Z,6.10
2018-10-21T21:20:53.648Z,7.03
2018-10-21T21:23:21.577Z,5.87
2018-10-21T21:25:49.455Z,6.13
2018-10-21T21:28:17.373Z,6.10
2018-10-21T21:30:45.317Z,6.00
2018-10-21T21:33:13.199Z,6.30
2018-10-21T21:35:41.407Z,6.43
2018-10-21T21:38:09.303Z,5.50
2018-10-21T21:40:37.204Z,5.73
2018-10-21T21:43:05.469Z,5.93
2018-10-21T21:45:33.394Z,5.73
2018-10-21T21:48:01.300Z,6.40
2018-10-21T21:50:29.224Z,5.97
2018-10-21T21:52:57.162Z,6.07
2018-10-21T21:55:25.023Z,6.07
2018-10-21T21:57:52.939Z,6.13
2018-10-21T22:00:20.855Z,5.80
2018-10-21T22:02:48.795Z,6.23
2018-10-21T22:05:16.716Z,6.67
2018-10-21T22:07:44.614Z,6.60
2018-10-21T22:10:13.627Z,6.40
2018-10-21T22:12:42.240Z,6.30
2018-10-21T22:15:10.144Z,6.10
2018-10-21T22:17:38.596Z,5.93
2018-10-21T22:20:06.520Z,6.43
2018-10-21T22:22:34.432Z,6.30
2018-10-21T22:25:02.360Z,6.43
2018-10-21T22:27:30.251Z,6.07
2018-10-21T22:29:58.176Z,6.30
2018-10-21T22:32:26.071Z,6.27
2018-10-21T22:34:53.967Z,6.00
2018-10-21T22:37:21.881Z,6.13
2018-10-21T22:39:49.807Z,6.33
2018-10-21T22:42:17.733Z,6.70
2018-10-21T22:44:45.620Z,6.53
2018-10-21T22:47:13.529Z,6.43
2018-10-21T22:49:41.443Z,6.80
2018-10-21T22:52:09.377Z,6.50
2018-10-21T22:54:37.247Z,6.13
2018-10-21T22:57:09.632Z,6.43
2018-10-21T22:59:37.524Z,6.47
2018-10-21T23:02:05.649Z,6.23
2018-10-21T23:04:33.572Z,6.80
2018-10-21T23:07:01.543Z,6.13
2018-10-21T23:09:29.427Z,6.30
2018-10-21T23:11:57.396Z,6.27
2018-10-21T23:14:25.236Z,6.10
2018-10-21T23:16:53.263Z,5.93
2018-10-21T23:19:44.115Z,6.03
2018-10-21T23:22:12.208Z,6.07
2018-10-21T23:24:40.575Z,5.77
2018-10-21T23:27:09.139Z,5.93
2018-10-21T23:29:37.112Z,6.73
2018-10-21T23:32:05.030Z,6.40
2018-10-21T23:34:32.936Z,6.23
2018-10-21T23:37:00.823Z,6.63
2018-10-21T23:39:29.300Z,6.50
2018-10-21T23:41:57.813Z,6.30
2018-10-21T23:44:25.682Z,6.27
2018-10-21T23:46:53.618Z,6.43
2018-10-21T23:49:21.836Z,6.20
2018-10-21T23:51:49.731Z,5.80
2018-10-21T23:54:17.714Z,6.10
2018-10-21T23:56:45.544Z,6.87
2018-10-21T23:59:13.475Z,6.43
